sensor_id;sensor_type;location;lat;lon;timestamp;pressure;altitude;pressure_sealevel;temperature;humidity
19845;BME280;10083;51.038;7.012;2023-09-19T12:53:07;102255.03;;;29.72;100.00
19845;BME280;10083;51.038;7.012;2023-09-19T12:55:58;102180.56;;;29.24;100.00
19845;BME280;10083;51.038;7.012;2023-09-19T13:02:05;102461.53;;;28.19;100.00
19845;BME280;10083;51.038;7.012;2023-09-19T13:04:52;102348.53;;;28.94;100.00
19845;BME280;10083;51.038;7.012;2023-09-19T13:07:52;102330.84;;;29.67;100.00
19845;BME280;10083;51.038;7.012;2023-09-19T13:10:21;102073.88;;;30.55;100.00
19845;BME280;10083;51.038;7.012;2023-09-19T13:16:18;102201.16;;;29.77;100.00
19845;BME280;10083;51.038;7.012;2023-09-19T13:18:54;102178.97;;;29.33;100.00
19845;BME280;10083;51.038;7.012;2023-09-19T13:21:30;102332.69;;;28.85;100.00
19845;BME280;10083;51.038;7.012;2023-09-19T13:24:19;102366.13;;;28.55;100.00
19845;BME280;10083;51.038;7.012;2023-09-19T13:30:12;101938.50;;;31.05;100.00
19845;BME280;10083;51.038;7.012;2023-09-19T13:33:12;102106.72;;;29.83;100.00
19845;BME280;10083;51.038;7.012;2023-09-19T13:35:46;102261.31;;;27.93;100.00
19845;BME280;10083;51.038;7.012;2023-09-19T13:38:16;102324.16;;;29.11;100.00
19845;BME280;10083;51.038;7.012;2023-09-19T13:40:47;102528.00;;;27.05;100.00
19845;BME280;10083;51.038;7.012;2023-09-19T13:43:15;102455.63;;;27.31;100.00
19845;BME280;10083;51.038;7.012;2023-09-19T13:46:05;102696.47;;;26.48;100.00
19845;BME280;10083;51.038;7.012;2023-09-19T13:48:41;102309.09;;;29.28;100.00
19845;BME280;10083;51.038;7.012;2023-09-19T13:51:20;102388.72;;;27.57;100.00
19845;BME280;10083;51.038;7.012;2023-09-19T13:53:48;102251.13;;;29.74;100.00
19845;BME280;10083;51.038;7.012;2023-09-19T13:56:22;102319.88;;;28.84;100.00
19845;BME280;10083;51.038;7.012;2023-09-19T13:58:50;102158.63;;;30.56;100.00
19845;BME280;10083;51.038;7.012;2023-09-19T14:04:58;102658.16;;;26.45;100.00
19845;BME280;10083;51.038;7.012;2023-09-19T14:07:59;102844.50;;;25.20;100.00
19845;BME280;10083;51.038;7.012;2023-09-19T14:10:30;102860.88;;;25.04;100.00
19845;BME280;10083;51.038;7.012;2023-09-19T14:13:04;102978.38;;;24.36;100.00
19845;BME280;10083;51.038;7.012;2023-09-19T14:15:39;102994.50;;;24.01;100.00
19845;BME280;10083;51.038;7.012;2023-09-19T14:18:07;102982.81;;;24.38;100.00
19845;BME280;10083;51.038;7.012;2023-09-19T14:20:37;103097.56;;;23.59;100.00
19845;BME280;10083;51.038;7.012;2023-09-19T14:23:10;103055.06;;;24.15;100.00
19845;BME280;10083;51.038;7.012;2023-09-19T14:29:29;103115.66;;;23.84;100.00
19845;BME280;10083;51.038;7.012;2023-09-19T14:31:58;103216.28;;;22.80;100.00
19845;BME280;10083;51.038;7.012;2023-09-19T14:34:29;103266.50;;;22.78;100.00
19845;BME280;10083;51.038;7.012;2023-09-19T14:36:58;103264.53;;;23.08;100.00
19845;BME280;10083;51.038;7.012;2023-09-19T14:39:27;103319.84;;;22.89;100.00
19845;BME280;10083;51.038;7.012;2023-09-19T14:41:54;103304.34;;;22.90;100.00
19845;BME280;10083;51.038;7.012;2023-09-19T14:44:27;103361.63;;;22.65;100.00
19845;BME280;10083;51.038;7.012;2023-09-19T14:46:57;103290.31;;;23.25;100.00
19845;BME280;10083;51.038;7.012;2023-09-19T14:49:33;103306.41;;;23.10;100.00
19845;BME280;10083;51.038;7.012;2023-09-19T14:52:08;103348.94;;;22.92;100.00
19845;BME280;10083;51.038;7.012;2023-09-19T14:54:35;103373.03;;;22.79;100.00
19845;BME280;10083;51.038;7.012;2023-09-19T14:57:36;103339.28;;;23.59;100.00
19845;BME280;10083;51.038;7.012;2023-09-19T15:00:11;103298.56;;;23.50;100.00
19845;BME280;10083;51.038;7.012;2023-09-19T15:02:47;103334.13;;;23.24;100.00
19845;BME280;10083;51.038;7.012;2023-09-19T15:05:26;103315.22;;;23.44;100.00
19845;BME280;10083;51.038;7.012;2023-09-19T15:07:56;103372.53;;;22.94;100.00
19845;BME280;10083;51.038;7.012;2023-09-19T15:10:24;103365.88;;;23.28;100.00
19845;BME280;10083;51.038;7.012;2023-09-19T15:12:55;103380.84;;;23.18;100.00
19845;BME280;10083;51.038;7.012;2023-09-19T15:15:23;103393.34;;;22.71;100.00
19845;BME280;10083;51.038;7.012;2023-09-19T15:18:09;103382.69;;;22.62;100.00
19845;BME280;10083;51.038;7.012;2023-09-19T15:20:42;103433.47;;;22.39;100.00
19845;BME280;10083;51.038;7.012;2023-09-19T15:23:11;103482.38;;;22.16;100.00
19845;BME280;10083;51.038;7.012;2023-09-19T15:25:39;103451.34;;;22.49;100.00
19845;BME280;10083;51.038;7.012;2023-09-19T15:28:16;103508.75;;;22.17;100.00
19845;BME280;10083;51.038;7.012;2023-09-19T15:30:44;103495.53;;;22.33;100.00
19845;BME280;10083;51.038;7.012;2023-09-19T15:33:28;103496.22;;;22.41;100.00
19845;BME280;10083;51.038;7.012;2023-09-19T15:36:03;103473.44;;;22.42;100.00
19845;BME280;10083;51.038;7.012;2023-09-19T15:38:57;103480.38;;;22.53;100.00
19845;BME280;10083;51.038;7.012;2023-09-19T15:41:27;103484.31;;;22.43;100.00
19845;BME280;10083;51.038;7.012;2023-09-19T15:43:57;103522.66;;;22.40;100.00
19845;BME280;10083;51.038;7.012;2023-09-19T15:46:24;103528.41;;;22.30;100.00
19845;BME280;10083;51.038;7.012;2023-09-19T15:49:00;103509.66;;;22.18;100.00
19845;BME280;10083;51.038;7.012;2023-09-19T15:51:28;103440.28;;;22.54;100.00
19845;BME280;10083;51.038;7.012;2023-09-19T15:54:07;103458.88;;;22.41;100.00
19845;BME280;10083;51.038;7.012;2023-09-19T15:56:35;103499.38;;;22.27;100.00
19845;BME280;10083;51.038;7.012;2023-09-19T15:59:04;103525.34;;;22.09;100.00
19845;BME280;10083;51.038;7.012;2023-09-19T16:01:35;103518.09;;;22.08;100.00
19845;BME280;10083;51.038;7.012;2023-09-19T16:04:08;103491.72;;;22.40;100.00
19845;BME280;10083;51.038;7.012;2023-09-19T16:06:47;103541.41;;;22.20;100.00
19845;BME280;10083;51.038;7.012;2023-09-19T16:09:19;103532.03;;;22.30;100.00
19845;BME280;10083;51.038;7.012;2023-09-19T16:11:59;103521.88;;;22.35;100.00
19845;BME280;10083;51.038;7.012;2023-09-19T16:14:27;103521.53;;;22.15;100.00
19845;BME280;10083;51.038;7.012;2023-09-19T16:16:58;103542.97;;;22.30;100.00
19845;BME280;10083;51.038;7.012;2023-09-19T16:19:27;103546.28;;;22.09;100.00
19845;BME280;10083;51.038;7.012;2023-09-19T16:21:55;103550.50;;;22.21;100.00
19845;BME280;10083;51.038;7.012;2023-09-19T16:24:23;103536.75;;;22.24;100.00
19845;BME280;10083;51.038;7.012;2023-09-19T16:26:56;103555.72;;;21.96;100.00
19845;BME280;10083;51.038;7.012;2023-09-19T16:29:24;103582.00;;;22.00;100.00
19845;BME280;10083;51.038;7.012;2023-09-19T16:31:51;103572.69;;;22.08;100.00
19845;BME280;10083;51.038;7.012;2023-09-19T16:34:20;103639.00;;;21.75;100.00
19845;BME280;10083;51.038;7.012;2023-09-19T16:37:01;103645.09;;;21.86;100.00
19845;BME280;10083;51.038;7.012;2023-09-19T16:39:29;103601.13;;;22.00;100.00
19845;BME280;10083;51.038;7.012;2023-09-19T16:42:00;103647.78;;;21.88;100.00
19845;BME280;10083;51.038;7.012;2023-09-19T16:44:27;103588.28;;;22.03;100.00
19845;BME280;10083;51.038;7.012;2023-09-19T16:46:58;103597.47;;;21.99;100.00
19845;BME280;10083;51.038;7.012;2023-09-19T16:49:25;103601.03;;;22.03;100.00
19845;BME280;10083;51.038;7.012;2023-09-19T16:52:21;103629.72;;;21.82;100.00
19845;BME280;10083;51.038;7.012;2023-09-19T16:54:51;103656.13;;;21.80;100.00
19845;BME280;10083;51.038;7.012;2023-09-19T16:57:23;103633.91;;;21.98;100.00
19845;BME280;10083;51.038;7.012;2023-09-19T16:59:52;103673.63;;;21.72;100.00
19845;BME280;10083;51.038;7.012;2023-09-19T17:02:19;103689.09;;;21.71;100.00
19845;BME280;10083;51.038;7.012;2023-09-19T17:04:46;103679.94;;;21.75;100.00
19845;BME280;10083;51.038;7.012;2023-09-19T17:07:21;103695.44;;;21.73;100.00
19845;BME280;10083;51.038;7.012;2023-09-19T17:09:49;103736.84;;;21.52;100.00
19845;BME280;10083;51.038;7.012;2023-09-19T17:12:27;103738.53;;;21.57;100.00
19845;BME280;10083;51.038;7.012;2023-09-19T17:14:54;103751.66;;;21.39;100.00
19845;BME280;10083;51.038;7.012;2023-09-19T17:17:28;103760.41;;;21.54;100.00
19845;BME280;10083;51.038;7.012;2023-09-19T17:19:56;103755.13;;;21.47;100.00
19845;BME280;10083;51.038;7.012;2023-09-19T17:22:24;103770.66;;;21.43;100.00
19845;BME280;10083;51.038;7.012;2023-09-19T17:24:51;103780.41;;;21.55;100.00
19845;BME280;10083;51.038;7.012;2023-09-19T17:27:37;103792.38;;;21.48;100.00
19845;BME280;10083;51.038;7.012;2023-09-19T17:30:07;103828.34;;;21.22;100.00
19845;BME280;10083;51.038;7.012;2023-09-19T17:32:37;103820.47;;;21.53;100.00
19845;BME280;10083;51.038;7.012;2023-09-19T17:35:05;103826.94;;;21.47;100.00
19845;BME280;10083;51.038;7.012;2023-09-19T17:37:40;103839.16;;;21.27;100.00
19845;BME280;10083;51.038;7.012;2023-09-19T17:40:10;103850.59;;;21.45;100.00
19845;BME280;10083;51.038;7.012;2023-09-19T17:42:44;103872.63;;;21.35;100.00
19845;BME280;10083;51.038;7.012;2023-09-19T17:45:11;103883.53;;;21.35;100.00
19845;BME280;10083;51.038;7.012;2023-09-19T17:47:51;103866.34;;;21.31;100.00
19845;BME280;10083;51.038;7.012;2023-09-19T17:50:21;103879.41;;;21.12;100.00
19845;BME280;10083;51.038;7.012;2023-09-19T17:53:04;103861.78;;;21.32;100.00
19845;BME280;10083;51.038;7.012;2023-09-19T17:55:36;103847.28;;;21.30;100.00
19845;BME280;10083;51.038;7.012;2023-09-19T17:58:07;103817.94;;;21.42;100.00
19845;BME280;10083;51.038;7.012;2023-09-19T18:00:35;103813.47;;;21.38;100.00
19845;BME280;10083;51.038;7.012;2023-09-19T18:03:12;103829.19;;;21.24;100.00
19845;BME280;10083;51.038;7.012;2023-09-19T18:05:43;103875.97;;;20.98;100.00
19845;BME280;10083;51.038;7.012;2023-09-19T18:08:14;103856.66;;;21.12;100.00
19845;BME280;10083;51.038;7.012;2023-09-19T18:10:41;103834.69;;;21.23;100.00
19845;BME280;10083;51.038;7.012;2023-09-19T18:13:10;103835.38;;;21.32;100.00
19845;BME280;10083;51.038;7.012;2023-09-19T18:15:37;103863.72;;;21.24;100.00
19845;BME280;10083;51.038;7.012;2023-09-19T18:18:05;103864.84;;;21.10;100.00
19845;BME280;10083;51.038;7.012;2023-09-19T18:20:54;103886.84;;;21.01;100.00
19845;BME280;10083;51.038;7.012;2023-09-19T18:23:21;103892.88;;;21.22;100.00
19845;BME280;10083;51.038;7.012;2023-09-19T18:25:49;103930.38;;;21.04;100.00
19845;BME280;10083;51.038;7.012;2023-09-19T18:28:20;103914.84;;;21.09;100.00
19845;BME280;10083;51.038;7.012;2023-09-19T18:30:54;103921.16;;;21.14;100.00
19845;BME280;10083;51.038;7.012;2023-09-19T18:33:22;103961.41;;;20.94;100.00
19845;BME280;10083;51.038;7.012;2023-09-19T18:35:52;103987.75;;;20.97;100.00
19845;BME280;10083;51.038;7.012;2023-09-19T18:38:57;103982.25;;;21.00;100.00
19845;BME280;10083;51.038;7.012;2023-09-19T18:41:24;103987.56;;;21.09;100.00
19845;BME280;10083;51.038;7.012;2023-09-19T18:43:53;104003.94;;;21.06;100.00
19845;BME280;10083;51.038;7.012;2023-09-19T18:46:21;104007.75;;;20.96;100.00
19845;BME280;10083;51.038;7.012;2023-09-19T18:49:01;104039.41;;;21.04;100.00
19845;BME280;10083;51.038;7.012;2023-09-19T18:51:33;104018.66;;;20.94;100.00
19845;BME280;10083;51.038;7.012;2023-09-19T18:54:02;104070.53;;;20.88;100.00
19845;BME280;10083;51.038;7.012;2023-09-19T18:56:29;104082.13;;;21.02;100.00
19845;BME280;10083;51.038;7.012;2023-09-19T18:59:04;104069.41;;;21.04;100.00
19845;BME280;10083;51.038;7.012;2023-09-19T19:01:33;104049.31;;;21.13;100.00
19845;BME280;10083;51.038;7.012;2023-09-19T19:04:06;104090.38;;;20.98;100.00
19845;BME280;10083;51.038;7.012;2023-09-19T19:06:33;104112.16;;;21.01;100.00
19845;BME280;10083;51.038;7.012;2023-09-19T19:09:11;104141.59;;;20.70;100.00
19845;BME280;10083;51.038;7.012;2023-09-19T19:11:39;104170.75;;;20.60;100.00
19845;BME280;10083;51.038;7.012;2023-09-19T19:14:08;104133.06;;;21.00;100.00
19845;BME280;10083;51.038;7.012;2023-09-19T19:16:38;104120.56;;;20.81;100.00
19845;BME280;10083;51.038;7.012;2023-09-19T19:19:12;104170.53;;;20.80;100.00
19845;BME280;10083;51.038;7.012;2023-09-19T19:21:44;104159.59;;;20.83;100.00
19845;BME280;10083;51.038;7.012;2023-09-19T19:24:13;104164.16;;;20.81;100.00
19845;BME280;10083;51.038;7.012;2023-09-19T19:26:46;104169.69;;;20.75;100.00
19845;BME280;10083;51.038;7.012;2023-09-19T19:29:16;104168.75;;;20.76;100.00
19845;BME280;10083;51.038;7.012;2023-09-19T19:31:46;104167.94;;;20.68;100.00
19845;BME280;10083;51.038;7.012;2023-09-19T19:34:24;104166.84;;;20.86;100.00
19845;BME280;10083;51.038;7.012;2023-09-19T19:36:52;104156.81;;;20.88;100.00
19845;BME280;10083;51.038;7.012;2023-09-19T19:39:20;104168.84;;;20.70;100.00
19845;BME280;10083;51.038;7.012;2023-09-19T19:41:49;104199.78;;;20.63;100.00
19845;BME280;10083;51.038;7.012;2023-09-19T19:44:39;104196.00;;;20.76;100.00
19845;BME280;10083;51.038;7.012;2023-09-19T19:47:06;104215.19;;;20.64;100.00
19845;BME280;10083;51.038;7.012;2023-09-19T19:49:42;104213.28;;;20.75;100.00
19845;BME280;10083;51.038;7.012;2023-09-19T19:52:15;104228.00;;;20.54;100.00
19845;BME280;10083;51.038;7.012;2023-09-19T19:54:56;104243.44;;;20.57;100.00
19845;BME280;10083;51.038;7.012;2023-09-19T19:57:26;104253.41;;;20.55;100.00
19845;BME280;10083;51.038;7.012;2023-09-19T19:59:55;104258.78;;;20.65;100.00
19845;BME280;10083;51.038;7.012;2023-09-19T20:02:25;104286.09;;;20.56;100.00
19845;BME280;10083;51.038;7.012;2023-09-19T20:07:52;104307.06;;;20.47;100.00
19845;BME280;10083;51.038;7.012;2023-09-19T20:10:24;104325.09;;;20.61;100.00
19845;BME280;10083;51.038;7.012;2023-09-19T20:12:52;104316.78;;;20.78;100.00
19845;BME280;10083;51.038;7.012;2023-09-19T20:15:34;104319.69;;;20.57;100.00
19845;BME280;10083;51.038;7.012;2023-09-19T20:18:03;104315.19;;;20.51;100.00
19845;BME280;10083;51.038;7.012;2023-09-19T20:20:34;104319.63;;;20.63;100.00
19845;BME280;10083;51.038;7.012;2023-09-19T20:23:02;104332.41;;;20.56;100.00
19845;BME280;10083;51.038;7.012;2023-09-19T20:25:33;104346.03;;;20.58;100.00
19845;BME280;10083;51.038;7.012;2023-09-19T20:28:03;104355.09;;;20.57;100.00
19845;BME280;10083;51.038;7.012;2023-09-19T20:30:45;104363.28;;;20.55;100.00
19845;BME280;10083;51.038;7.012;2023-09-19T20:33:13;104435.13;;;20.35;100.00
19845;BME280;10083;51.038;7.012;2023-09-19T20:35:43;104488.72;;;20.13;100.00
19845;BME280;10083;51.038;7.012;2023-09-19T20:38:10;104541.34;;;20.36;100.00
19845;BME280;10083;51.038;7.012;2023-09-19T20:40:46;104540.41;;;20.23;100.00
19845;BME280;10083;51.038;7.012;2023-09-19T20:43:13;104534.09;;;20.30;100.00
19845;BME280;10083;51.038;7.012;2023-09-19T20:46:02;104515.94;;;20.29;100.00
19845;BME280;10083;51.038;7.012;2023-09-19T20:48:30;104512.25;;;20.27;100.00
19845;BME280;10083;51.038;7.012;2023-09-19T20:51:12;104539.53;;;20.21;100.00
19845;BME280;10083;51.038;7.012;2023-09-19T20:53:45;104502.25;;;20.45;100.00
19845;BME280;10083;51.038;7.012;2023-09-19T20:56:49;104497.75;;;20.33;100.00
19845;BME280;10083;51.038;7.012;2023-09-19T20:59:17;104485.06;;;20.30;100.00
19845;BME280;10083;51.038;7.012;2023-09-19T21:01:46;104488.66;;;20.39;100.00
19845;BME280;10083;51.038;7.012;2023-09-19T21:04:13;104478.63;;;20.47;100.00
19845;BME280;10083;51.038;7.012;2023-09-19T21:06:41;104489.56;;;20.28;100.00
19845;BME280;10083;51.038;7.012;2023-09-19T21:09:09;104501.38;;;20.37;100.00
19845;BME280;10083;51.038;7.012;2023-09-19T21:11:41;104512.28;;;20.34;100.00
19845;BME280;10083;51.038;7.012;2023-09-19T21:14:08;104515.00;;;20.24;100.00
19845;BME280;10083;51.038;7.012;2023-09-19T21:16:39;104482.31;;;20.29;100.00
19845;BME280;10083;51.038;7.012;2023-09-19T21:19:08;104483.22;;;20.39;100.00
19845;BME280;10083;51.038;7.012;2023-09-19T21:21:37;104466.84;;;20.42;100.00
19845;BME280;10083;51.038;7.012;2023-09-19T21:24:04;104493.19;;;20.29;100.00
19845;BME280;10083;51.038;7.012;2023-09-19T21:26:37;104493.25;;;20.30;100.00
19845;BME280;10083;51.038;7.012;2023-09-19T21:29:05;104467.84;;;20.32;100.00
19845;BME280;10083;51.038;7.012;2023-09-19T21:31:39;104435.94;;;20.50;100.00
19845;BME280;10083;51.038;7.012;2023-09-19T21:34:10;104462.38;;;20.36;100.00
19845;BME280;10083;51.038;7.012;2023-09-19T21:36:42;104465.06;;;20.38;100.00
19845;BME280;10083;51.038;7.012;2023-09-19T21:39:09;104441.41;;;20.49;100.00
19845;BME280;10083;51.038;7.012;2023-09-19T21:41:37;104448.78;;;20.32;100.00
19845;BME280;10083;51.038;7.012;2023-09-19T21:44:04;104460.53;;;20.32;100.00
19845;BME280;10083;51.038;7.012;2023-09-19T21:46:31;104454.19;;;20.25;100.00
19845;BME280;10083;51.038;7.012;2023-09-19T21:49:01;104456.91;;;20.27;100.00
19845;BME280;10083;51.038;7.012;2023-09-19T21:51:36;104445.13;;;20.36;100.00
19845;BME280;10083;51.038;7.012;2023-09-19T21:54:03;104430.59;;;20.34;100.00
19845;BME280;10083;51.038;7.012;2023-09-19T21:56:31;104430.59;;;20.24;100.00
19845;BME280;10083;51.038;7.012;2023-09-19T21:58:59;104431.56;;;20.17;100.00
19845;BME280;10083;51.038;7.012;2023-09-19T22:01:26;104426.06;;;20.26;100.00
19845;BME280;10083;51.038;7.012;2023-09-19T22:04:17;104409.75;;;20.31;100.00
19845;BME280;10083;51.038;7.012;2023-09-19T22:06:49;104406.16;;;20.18;100.00
19845;BME280;10083;51.038;7.012;2023-09-19T22:09:34;104400.69;;;20.21;100.00
19845;BME280;10083;51.038;7.012;2023-09-19T22:12:02;104367.94;;;20.29;100.00
19845;BME280;10083;51.038;7.012;2023-09-19T22:14:33;104342.56;;;20.35;100.00
19845;BME280;10083;51.038;7.012;2023-09-19T22:17:04;104345.38;;;20.10;100.00
19845;BME280;10083;51.038;7.012;2023-09-19T22:19:40;104336.22;;;20.29;100.00
19845;BME280;10083;51.038;7.012;2023-09-19T22:22:10;104337.31;;;19.97;100.00
19845;BME280;10083;51.038;7.012;2023-09-19T22:24:44;104349.91;;;20.11;100.00
19845;BME280;10083;51.038;7.012;2023-09-19T22:27:11;104332.75;;;19.97;100.00
19845;BME280;10083;51.038;7.012;2023-09-19T22:29:42;104312.72;;;20.12;100.00
19845;BME280;10083;51.038;7.012;2023-09-19T22:32:10;104295.63;;;19.87;100.00
19845;BME280;10083;51.038;7.012;2023-09-19T22:34:38;104297.44;;;19.85;100.00
19845;BME280;10083;51.038;7.012;2023-09-19T22:37:06;104272.88;;;20.00;100.00
19845;BME280;10083;51.038;7.012;2023-09-19T22:39:39;104262.97;;;19.92;100.00
19845;BME280;10083;51.038;7.012;2023-09-19T22:42:07;104235.78;;;19.87;100.00
19845;BME280;10083;51.038;7.012;2023-09-19T22:44:44;104208.38;;;20.11;100.00
19845;BME280;10083;51.038;7.012;2023-09-19T22:47:11;104194.94;;;19.92;100.00
19845;BME280;10083;51.038;7.012;2023-09-19T22:49:41;104190.22;;;20.10;100.00
19845;BME280;10083;51.038;7.012;2023-09-19T22:52:09;104175.63;;;20.19;100.00
19845;BME280;10083;51.038;7.012;2023-09-19T22:54:38;104193.09;;;19.95;100.00
19845;BME280;10083;51.038;7.012;2023-09-19T22:57:06;104185.81;;;19.97;100.00
19845;BME280;10083;51.038;7.012;2023-09-19T22:59:38;104182.09;;;20.07;100.00
19845;BME280;10083;51.038;7.012;2023-09-19T23:02:06;104168.50;;;20.06;100.00
19845;BME280;10083;51.038;7.012;2023-09-19T23:04:40;104176.78;;;19.89;100.00
19845;BME280;10083;51.038;7.012;2023-09-19T23:07:08;104175.91;;;19.85;100.00
19845;BME280;10083;51.038;7.012;2023-09-19T23:09:39;104185.97;;;19.73;100.00
19845;BME280;10083;51.038;7.012;2023-09-19T23:12:08;104170.50;;;19.81;100.00
19845;BME280;10083;51.038;7.012;2023-09-19T23:14:39;104155.13;;;19.77;100.00
19845;BME280;10083;51.038;7.012;2023-09-19T23:17:07;104146.06;;;19.79;100.00
19845;BME280;10083;51.038;7.012;2023-09-19T23:19:40;104141.53;;;19.78;100.00
19845;BME280;10083;51.038;7.012;2023-09-19T23:22:07;104126.06;;;19.80;100.00
19845;BME280;10083;51.038;7.012;2023-09-19T23:24:38;104126.03;;;19.85;100.00
19845;BME280;10083;51.038;7.012;2023-09-19T23:27:06;104118.03;;;19.70;100.00
19845;BME280;10083;51.038;7.012;2023-09-19T23:29:44;104123.31;;;19.88;100.00
19845;BME280;10083;51.038;7.012;2023-09-19T23:32:24;104109.75;;;19.82;100.00
19845;BME280;10083;51.038;7.012;2023-09-19T23:34:54;104104.28;;;19.85;100.00
19845;BME280;10083;51.038;7.012;2023-09-19T23:37:27;104088.00;;;19.80;100.00
19845;BME280;10083;51.038;7.012;2023-09-19T23:39:55;104077.06;;;19.85;100.00
19845;BME280;10083;51.038;7.012;2023-09-19T23:42:29;104064.38;;;19.87;100.00
19845;BME280;10083;51.038;7.012;2023-09-19T23:44:58;104043.44;;;19.94;100.00
19845;BME280;10083;51.038;7.012;2023-09-19T23:47:27;104042.63;;;19.84;100.00
19845;BME280;10083;51.038;7.012;2023-09-19T23:49:54;104032.72;;;19.77;100.00
19845;BME280;10083;51.038;7.012;2023-09-19T23:52:38;104009.13;;;19.79;100.00
19845;BME280;10083;51.038;7.012;2023-09-19T23:55:08;103992.72;;;19.88;100.00
19845;BME280;10083;51.038;7.012;2023-09-19T23:57:41;103974.69;;;19.78;100.00
